Terminal Aerodrome Forecast
Issued by NWS Wilmington, OH

Current Version | Previous Version | Graphics & Text | Print | Product List | Glossary On
Versions: 1 2 3 4 5 6 7 8 9 10 11 12 13 14 15 16 17 18 19 20
000
FTUS41 KILN 282346
TAFCMH
TAF
KCMH 282346Z 2900/2924 23012G20KT P6SM VCTS SCT040CB BKN250
      TEMPO 2900/2902 2SM TSRA OVC025CB
     FM290400 03005KT P6SM SCT080 BKN250
     FM291400 04006KT P6SM SCT040=

USA.gov is the U.S. government's official web portal to all federal, state and local government web resources and services.